Time;durP1;ratioP1;P1;durP2;ratioP2;P2;SDS_P1;SDS_P2;PMS_P1;PMS_P2;Temp;Humidity;BMP_temperature;BMP_pressure;BME280_temperature;BME280_humidity;BME280_pressure;Samples;Min_cycle;Max_cycle;Signal;HPM_P1;HPM_P2
2022/07/16 00:02:58;;;;;;;3.70;2.10;;;23.10;78.80;;;;;;5099183;28;20203;-93
2022/07/16 00:05:23;;;;;;;1.60;1.50;;;23.10;78.60;;;;;;5094558;28;20417;-92
2022/07/16 00:07:49;;;;;;;1.97;1.63;;;23.10;78.50;;;;;;5094042;28;20250;-95
2022/07/16 00:10:15;;;;;;;5.40;1.73;;;23.10;78.30;;;;;;5095349;28;20181;-93
2022/07/16 00:12:41;;;;;;;2.53;1.47;;;23.10;78.30;;;;;;5094336;28;20207;-93
2022/07/16 00:15:07;;;;;;;3.30;1.80;;;23.10;78.30;;;;;;5097234;28;20249;-92
2022/07/16 00:17:33;;;;;;;3.10;1.50;;;23.20;78.20;;;;;;5095277;28;20204;-95
2022/07/16 00:19:58;;;;;;;1.43;1.23;;;23.20;78.20;;;;;;5094847;28;20539;-94
2022/07/16 00:22:24;;;;;;;1.47;1.37;;;23.20;78.20;;;;;;5095724;28;20193;-94
2022/07/16 00:24:50;;;;;;;4.67;1.67;;;23.30;78.20;;;;;;5102381;28;20247;-93
2022/07/16 00:27:16;;;;;;;1.97;1.67;;;23.30;78.20;;;;;;5101854;28;20464;-93
2022/07/16 00:29:41;;;;;;;1.60;1.50;;;23.40;78.10;;;;;;5094356;28;20528;-94
2022/07/16 00:32:07;;;;;;;1.40;1.30;;;23.40;78.20;;;;;;5094939;28;20193;-94
2022/07/16 00:34:33;;;;;;;1.60;1.50;;;23.50;78.10;;;;;;5096052;28;20644;-94
2022/07/16 00:36:59;;;;;;;2.30;1.67;;;23.50;78.10;;;;;;5094904;28;20197;-95
2022/07/16 00:39:24;;;;;;;1.97;1.70;;;23.50;77.80;;;;;;5094982;28;20423;-92
2022/07/16 00:41:50;;;;;;;1.50;1.40;;;23.50;77.80;;;;;;5095580;28;20197;-93
2022/07/16 00:44:18;;;;;;;2.70;2.03;;;23.50;77.70;;;;;;5094266;28;20189;-95
2022/07/16 00:46:45;;;;;;;2.00;1.80;;;23.50;77.80;;;;;;5094977;28;20192;-95
2022/07/16 00:49:13;;;;;;;2.40;1.43;;;23.60;77.80;;;;;;5095340;28;20424;-93
2022/07/16 00:51:47;;;;;;;1.80;1.50;;;23.60;77.70;;;;;;5093774;28;20426;-93
2022/07/16 00:54:13;;;;;;;1.57;1.43;;;23.60;77.40;;;;;;5095639;28;20487;-95
2022/07/16 00:56:40;;;;;;;1.40;1.30;;;23.60;77.30;;;;;;5093937;28;20427;-93
2022/07/16 00:59:06;;;;;;;2.57;1.40;;;23.60;77.30;;;;;;5094131;28;20456;-94
2022/07/16 01:01:32;;;;;;;2.00;1.70;;;23.60;77.20;;;;;;5093667;28;20480;-94
2022/07/16 01:03:59;;;;;;;1.60;1.50;;;23.70;77.20;;;;;;5094034;28;20974;-93
2022/07/16 01:06:26;;;;;;;1.40;1.20;;;23.60;77.10;;;;;;5094628;28;20516;-95
2022/07/16 01:08:52;;;;;;;2.63;1.40;;;23.70;77.70;;;;;;5095389;28;20418;-95
2022/07/16 01:11:19;;;;;;;2.47;1.40;;;23.70;76.80;;;;;;5093740;28;20758;-95
2022/07/16 01:13:48;;;;;;;2.47;1.60;;;23.60;76.60;;;;;;5094625;28;20513;-94
2022/07/16 01:16:14;;;;;;;2.20;1.60;;;23.70;76.70;;;;;;5097358;28;20529;-95
2022/07/16 01:18:41;;;;;;;1.57;1.40;;;23.60;76.50;;;;;;5093773;28;20462;-93
2022/07/16 01:21:07;;;;;;;2.00;1.80;;;23.60;76.60;;;;;;5096183;28;20406;-94
2022/07/16 01:23:33;;;;;;;2.33;1.53;;;23.60;76.80;;;;;;5098902;28;20414;-95
2022/07/16 01:25:59;;;;;;;1.30;1.20;;;23.60;76.80;;;;;;5097412;28;20416;-92
2022/07/16 01:28:25;;;;;;;1.83;1.43;;;23.60;77.00;;;;;;5097455;28;21028;-93
2022/07/16 01:30:51;;;;;;;2.30;1.13;;;23.50;77.10;;;;;;5097523;28;20211;-92
2022/07/16 01:33:31;;;;;;;2.00;1.47;;;23.50;77.20;;;;;;5099075;28;20198;-93
2022/07/16 01:36:01;;;;;;;3.20;1.60;;;23.50;78.30;;;;;;5097359;28;20205;-94
2022/07/16 01:38:27;;;;;;;1.60;1.30;;;23.50;77.80;;;;;;5097355;28;20435;-94
2022/07/16 01:40:53;;;;;;;3.73;1.40;;;23.50;77.80;;;;;;5097305;28;20418;-94
2022/07/16 01:43:25;;;;;;;1.67;1.57;;;23.50;78.10;;;;;;5104522;28;20505;-92
2022/07/16 01:45:51;;;;;;;2.00;1.70;;;23.40;78.70;;;;;;5103660;28;20412;-94
2022/07/16 01:48:17;;;;;;;2.40;2.20;;;23.40;79.20;;;;;;5098486;28;20453;-93
2022/07/16 01:50:44;;;;;;;1.67;1.23;;;23.30;79.10;;;;;;5097136;28;20413;-93
2022/07/16 01:53:11;;;;;;;2.27;1.80;;;23.30;79.50;;;;;;5097225;28;20818;-94
2022/07/16 01:55:37;;;;;;;3.50;1.60;;;23.20;79.70;;;;;;5097003;28;20462;-93
2022/07/16 01:58:04;;;;;;;1.93;1.50;;;23.10;80.20;;;;;;5099700;28;20448;-94
2022/07/16 02:00:31;;;;;;;3.30;1.57;;;23.10;81.30;;;;;;5099691;28;20405;-93
2022/07/16 02:02:58;;;;;;;1.60;1.47;;;23.10;82.30;;;;;;5080779;28;20490;-95
2022/07/16 02:05:24;;;;;;;3.37;1.40;;;23.00;83.30;;;;;;5096892;28;20453;-92
2022/07/16 02:07:49;;;;;;;1.70;1.50;;;23.00;84.20;;;;;;5098539;28;20456;-93
2022/07/16 02:10:16;;;;;;;7.53;2.13;;;23.00;84.80;;;;;;5098496;28;20922;-93
2022/07/16 02:12:41;;;;;;;1.70;1.60;;;23.00;85.30;;;;;;5096940;28;20224;-95
2022/07/16 02:15:08;;;;;;;1.57;1.47;;;22.90;85.80;;;;;;5096610;28;20496;-93
2022/07/16 02:17:35;;;;;;;2.10;1.83;;;22.90;86.10;;;;;;5096593;28;20565;-93
2022/07/16 02:20:03;;;;;;;4.20;1.50;;;22.80;86.70;;;;;;5097678;28;20404;-93
2022/07/16 02:22:29;;;;;;;2.03;1.80;;;22.80;87.60;;;;;;5096429;28;20457;-95
2022/07/16 02:24:54;;;;;;;2.00;1.80;;;22.80;87.60;;;;;;5097422;28;20401;-94
2022/07/16 02:27:20;;;;;;;2.90;1.93;;;22.70;87.50;;;;;;5097278;28;20762;-95
2022/07/16 02:29:46;;;;;;;2.77;2.13;;;22.70;88.30;;;;;;5097739;28;20180;-94
2022/07/16 02:32:11;;;;;;;2.20;1.77;;;22.70;88.90;;;;;;5097208;28;20196;-93
2022/07/16 02:34:37;;;;;;;2.80;1.70;;;22.60;89.20;;;;;;5095087;28;20200;-95
2022/07/16 02:37:03;;;;;;;3.00;1.70;;;22.60;89.60;;;;;;5100205;28;20196;-93
2022/07/16 02:39:29;;;;;;;2.50;2.17;;;22.50;90.20;;;;;;5096439;28;20172;-95
2022/07/16 02:41:54;;;;;;;3.90;3.60;;;22.50;90.60;;;;;;5096783;28;20196;-95
2022/07/16 02:44:20;;;;;;;2.00;1.77;;;22.40;90.70;;;;;;5097656;28;20185;-94
2022/07/16 02:46:46;;;;;;;1.90;1.53;;;22.40;90.80;;;;;;5095576;28;20623;-92
2022/07/16 02:49:11;;;;;;;1.90;1.80;;;22.30;91.00;;;;;;5097607;28;20180;-93
2022/07/16 02:51:37;;;;;;;1.57;1.47;;;22.20;91.10;;;;;;5095864;28;20200;-93
2022/07/16 02:54:04;;;;;;;1.50;1.40;;;22.10;91.20;;;;;;5095966;28;20184;-95
2022/07/16 02:56:30;;;;;;;1.60;1.50;;;22.10;91.30;;;;;;5097480;28;20231;-93
2022/07/16 02:58:56;;;;;;;1.63;1.53;;;22.00;91.60;;;;;;5097721;28;20437;-95
2022/07/16 03:01:22;;;;;;;1.73;1.63;;;22.00;91.80;;;;;;5095736;28;21036;-95
2022/07/16 03:03:48;;;;;;;3.90;2.10;;;21.90;92.00;;;;;;5095843;28;20525;-93
2022/07/16 03:06:14;;;;;;;2.50;2.03;;;21.90;92.00;;;;;;5095363;28;20236;-94
2022/07/16 03:08:40;;;;;;;2.20;2.00;;;21.90;92.00;;;;;;5099338;28;20482;-93
2022/07/16 03:11:06;;;;;;;2.80;2.00;;;21.90;91.90;;;;;;5095506;28;21012;-95
2022/07/16 03:13:32;;;;;;;2.23;2.00;;;21.90;92.00;;;;;;5095738;28;20184;-94
2022/07/16 03:16:00;;;;;;;2.30;1.97;;;21.80;92.10;;;;;;5095487;28;20467;-92
2022/07/16 03:18:26;;;;;;;2.33;1.80;;;21.70;92.10;;;;;;5097404;28;20290;-93
2022/07/16 03:20:51;;;;;;;2.90;2.23;;;21.70;92.30;;;;;;5096480;28;20401;-92
2022/07/16 03:23:17;;;;;;;4.10;2.40;;;21.70;92.40;;;;;;5096684;28;20200;-93
2022/07/16 03:25:43;;;;;;;2.00;1.70;;;21.60;92.60;;;;;;5095339;28;20592;-92
2022/07/16 03:28:09;;;;;;;3.13;2.10;;;21.60;92.80;;;;;;5095372;28;20204;-94
2022/07/16 03:30:35;;;;;;;2.37;1.90;;;21.60;92.90;;;;;;5096634;28;20173;-95
2022/07/16 03:33:02;;;;;;;3.63;2.10;;;21.50;93.00;;;;;;5096294;28;20662;-93
2022/07/16 03:35:29;;;;;;;2.87;2.57;;;21.50;93.10;;;;;;5095926;28;20460;-94
2022/07/16 03:40:39;;;;;;;4.10;2.23;;;21.50;93.40;;;;;;5096014;28;20389;-94
2022/07/16 03:43:05;;;;;;;2.60;2.40;;;21.40;93.40;;;;;;5097620;28;20782;-93
2022/07/16 03:45:31;;;;;;;2.80;2.07;;;21.40;93.60;;;;;;5094593;28;20305;-93
2022/07/16 03:47:57;;;;;;;2.97;2.40;;;21.30;93.60;;;;;;5095158;28;20966;-94
2022/07/16 03:50:23;;;;;;;2.80;2.30;;;21.30;93.80;;;;;;5097616;28;20183;-94
2022/07/16 03:52:48;;;;;;;2.40;1.80;;;21.20;94.00;;;;;;5095748;28;20619;-95
2022/07/16 03:55:15;;;;;;;2.60;2.00;;;21.20;94.00;;;;;;5096911;28;20212;-94
2022/07/16 03:57:41;;;;;;;4.50;2.00;;;21.20;94.10;;;;;;5094952;28;20691;-93
2022/07/16 04:00:08;;;;;;;2.23;2.03;;;21.10;94.20;;;;;;5095609;28;20433;-92
2022/07/16 04:02:34;;;;;;;1.80;1.70;;;21.10;94.40;;;;;;5099901;28;20548;-93
2022/07/16 04:05:00;;;;;;;3.23;2.30;;;21.10;94.60;;;;;;5102964;28;20405;-93
2022/07/16 04:07:26;;;;;;;2.53;1.90;;;21.00;94.60;;;;;;5096518;28;20478;-95
2022/07/16 04:09:52;;;;;;;2.33;2.13;;;21.00;94.80;;;;;;5095529;28;20252;-93
2022/07/16 04:12:17;;;;;;;2.23;1.93;;;21.00;95.00;;;;;;5095037;28;20202;-93
2022/07/16 04:14:43;;;;;;;2.97;2.20;;;21.00;95.00;;;;;;5101408;28;20464;-93
2022/07/16 04:17:09;;;;;;;3.80;1.77;;;21.00;95.10;;;;;;5105603;28;20608;-94
2022/07/16 04:19:34;;;;;;;3.20;1.70;;;21.00;95.30;;;;;;5095739;28;20196;-94
2022/07/16 04:22:00;;;;;;;4.93;2.40;;;21.00;95.50;;;;;;5097904;28;20252;-93
2022/07/16 04:24:26;;;;;;;3.43;2.13;;;21.00;95.60;;;;;;5094213;28;20271;-92
2022/07/16 04:26:52;;;;;;;2.70;2.33;;;21.00;95.70;;;;;;5094134;28;20245;-93
2022/07/16 04:29:17;;;;;;;2.40;2.10;;;21.00;96.10;;;;;;5094484;28;20207;-94
2022/07/16 04:31:43;;;;;;;4.03;2.50;;;21.00;95.90;;;;;;5094077;28;20192;-94
2022/07/16 04:34:09;;;;;;;3.37;2.90;;;21.00;96.00;;;;;;5099402;28;20540;-94
2022/07/16 04:36:35;;;;;;;4.13;2.43;;;21.00;96.10;;;;;;5094381;28;20199;-94
2022/07/16 04:39:00;;;;;;;2.07;1.83;;;21.00;96.20;;;;;;5095944;28;20202;-94
2022/07/16 04:41:26;;;;;;;3.37;2.43;;;21.00;96.20;;;;;;5093975;28;20195;-93
2022/07/16 04:43:52;;;;;;;2.30;2.10;;;21.00;96.40;;;;;;5096276;28;20405;-90
2022/07/16 04:46:17;;;;;;;3.40;2.23;;;21.00;96.50;;;;;;5095265;28;20208;-93
2022/07/16 04:48:43;;;;;;;4.40;2.37;;;21.00;96.50;;;;;;5094047;28;20251;-93
2022/07/16 04:51:09;;;;;;;2.50;2.30;;;21.00;96.40;;;;;;5093935;28;20549;-94
2022/07/16 04:53:37;;;;;;;2.93;1.83;;;21.00;96.50;;;;;;5094271;28;20214;-95
2022/07/16 04:56:04;;;;;;;2.87;2.10;;;21.00;96.80;;;;;;5094499;28;20215;-95
2022/07/16 04:58:29;;;;;;;2.83;2.37;;;21.10;96.90;;;;;;5098310;28;20423;-95
2022/07/16 05:00:55;;;;;;;2.67;2.47;;;21.10;96.90;;;;;;5098280;28;20925;-95
2022/07/16 05:03:24;;;;;;;2.80;2.47;;;21.10;96.90;;;;;;5099077;28;20192;-95
2022/07/16 05:05:49;;;;;;;3.20;2.47;;;21.10;96.90;;;;;;5097967;28;20195;-94
2022/07/16 05:08:15;;;;;;;5.63;2.27;;;21.10;97.10;;;;;;5078282;28;20511;-95
2022/07/16 05:10:41;;;;;;;3.37;2.40;;;21.10;97.20;;;;;;5078807;28;20177;-92
2022/07/16 05:13:10;;;;;;;2.90;2.37;;;21.10;97.60;;;;;;5077827;28;20474;-95
2022/07/16 05:15:37;;;;;;;2.77;2.47;;;21.10;97.30;;;;;;5077750;28;21014;-93
2022/07/16 05:18:03;;;;;;;2.70;2.40;;;21.20;97.40;;;;;;5077480;28;20540;-95
2022/07/16 05:20:30;;;;;;;4.17;2.93;;;21.20;97.50;;;;;;5078111;28;20417;-93
2022/07/16 05:22:56;;;;;;;3.57;2.50;;;21.20;97.40;;;;;;5077238;28;20450;-95
2022/07/16 05:25:22;;;;;;;3.30;2.80;;;21.20;97.40;;;;;;5078652;28;20608;-93
2022/07/16 05:27:48;;;;;;;2.90;2.60;;;21.20;97.40;;;;;;5077046;28;20477;-93
2022/07/16 05:30:15;;;;;;;4.17;2.63;;;21.20;97.20;;;;;;5077334;28;20429;-93
2022/07/16 05:32:45;;;;;;;8.53;2.67;;;21.30;97.20;;;;;;5078946;28;20208;-94
2022/07/16 05:35:15;;;;;;;4.27;3.53;;;21.30;97.30;;;;;;5077328;28;20556;-94
2022/07/16 05:37:41;;;;;;;2.90;2.53;;;21.30;97.20;;;;;;5079698;28;20437;-93
2022/07/16 05:40:07;;;;;;;2.57;2.33;;;21.30;97.30;;;;;;5078103;28;20418;-93
2022/07/16 05:42:34;;;;;;;6.00;2.43;;;21.30;97.20;;;;;;5076969;28;20452;-94
2022/07/16 05:44:59;;;;;;;4.43;2.73;;;21.30;97.30;;;;;;5077530;28;20414;-93
2022/07/16 05:47:25;;;;;;;3.50;2.90;;;21.30;97.40;;;;;;5079432;28;20532;-94
2022/07/16 05:49:51;;;;;;;3.53;2.90;;;21.30;97.20;;;;;;5077534;28;20187;-91
2022/07/16 05:52:17;;;;;;;4.80;3.50;;;21.40;97.00;;;;;;5076972;28;20555;-94
2022/07/16 05:54:42;;;;;;;6.00;3.10;;;21.40;96.80;;;;;;5076503;28;20212;-93
2022/07/16 05:57:08;;;;;;;3.23;2.93;;;21.50;96.40;;;;;;5076430;28;20205;-95
2022/07/16 05:59:34;;;;;;;3.70;3.10;;;21.50;96.10;;;;;;5079848;28;20722;-93
2022/07/16 06:02:00;;;;;;;4.83;3.30;;;21.50;96.20;;;;;;5076378;28;20197;-93
2022/07/16 06:04:25;;;;;;;3.10;2.80;;;21.60;96.30;;;;;;5076343;28;20184;-92
2022/07/16 06:06:51;;;;;;;3.50;2.60;;;21.60;96.10;;;;;;5084666;28;20468;-94
2022/07/16 06:09:17;;;;;;;2.67;2.47;;;21.70;95.80;;;;;;5096775;28;20180;-94
2022/07/16 06:11:43;;;;;;;3.00;2.70;;;21.80;95.70;;;;;;5096578;28;20650;-94
2022/07/16 06:14:08;;;;;;;4.10;2.83;;;21.90;95.40;;;;;;5101083;28;20247;-93
2022/07/16 06:16:39;;;;;;;3.43;3.00;;;21.90;94.80;;;;;;5097678;28;20527;-94
2022/07/16 06:19:05;;;;;;;3.23;2.90;;;21.90;94.50;;;;;;5096545;28;20189;-95
2022/07/16 06:21:30;;;;;;;4.30;3.10;;;22.00;94.50;;;;;;5096635;28;20432;-94
2022/07/16 06:23:56;;;;;;;3.50;3.20;;;22.00;94.50;;;;;;5096650;28;20183;-93
2022/07/16 06:26:22;;;;;;;4.63;3.30;;;22.10;94.60;;;;;;5096362;28;20198;-94
2022/07/16 06:28:47;;;;;;;6.30;3.90;;;22.10;94.50;;;;;;5097825;28;20173;-94
2022/07/16 06:31:13;;;;;;;5.90;3.53;;;22.20;94.20;;;;;;5096386;28;20176;-93
2022/07/16 06:33:39;;;;;;;8.60;4.00;;;22.20;94.20;;;;;;5096755;28;20185;-93
2022/07/16 06:36:05;;;;;;;9.17;3.40;;;22.30;94.20;;;;;;5096088;28;20200;-94
2022/07/16 06:38:32;;;;;;;3.40;3.10;;;22.30;94.00;;;;;;5096393;28;20184;-93
2022/07/16 06:40:58;;;;;;;4.87;3.90;;;22.30;94.00;;;;;;5097876;28;20416;-93
2022/07/16 06:43:24;;;;;;;3.73;3.10;;;22.40;93.90;;;;;;5096084;28;20432;-93
2022/07/16 06:45:50;;;;;;;5.17;3.07;;;22.50;93.80;;;;;;5098507;28;20416;-94
2022/07/16 06:48:16;;;;;;;5.00;3.53;;;22.60;93.20;;;;;;5098736;28;20238;-95
2022/07/16 06:50:42;;;;;;;6.73;3.87;;;22.70;92.90;;;;;;5097131;28;20397;-94
2022/07/16 06:53:08;;;;;;;3.33;3.00;;;22.80;92.40;;;;;;5096254;28;20257;-94
2022/07/16 06:55:33;;;;;;;4.90;2.83;;;22.90;91.30;;;;;;5096756;28;20514;-93
2022/07/16 06:57:59;;;;;;;6.37;2.50;;;23.00;91.10;;;;;;5097063;28;20286;-93
2022/07/16 07:00:25;;;;;;;5.43;2.80;;;23.10;90.80;;;;;;5096785;28;20628;-94
2022/07/16 07:02:50;;;;;;;4.50;2.97;;;23.20;90.70;;;;;;5095804;28;20230;-93
2022/07/16 07:05:16;;;;;;;4.07;2.67;;;23.20;90.30;;;;;;5096261;28;20180;-93
2022/07/16 07:07:43;;;;;;;3.97;2.80;;;23.30;90.00;;;;;;5099232;28;20228;-93
2022/07/16 07:10:09;;;;;;;4.43;3.03;;;23.40;89.20;;;;;;5096622;28;20209;-92
2022/07/16 07:12:34;;;;;;;3.50;2.53;;;23.40;88.30;;;;;;5095569;28;20453;-94
2022/07/16 07:15:00;;;;;;;6.90;3.23;;;23.50;87.50;;;;;;5096402;28;20463;-92
2022/07/16 07:17:26;;;;;;;3.50;2.73;;;23.50;87.90;;;;;;5096529;28;20279;-94
2022/07/16 07:19:52;;;;;;;3.90;2.80;;;23.60;88.10;;;;;;5094832;28;20174;-92
2022/07/16 07:22:17;;;;;;;4.53;2.67;;;23.70;88.00;;;;;;5095798;28;20197;-94
2022/07/16 07:24:43;;;;;;;3.23;2.50;;;23.80;87.80;;;;;;5095360;28;20514;-93
2022/07/16 07:27:09;;;;;;;2.70;2.40;;;23.90;87.20;;;;;;5095120;28;20248;-95
2022/07/16 07:29:34;;;;;;;4.40;2.67;;;24.00;86.70;;;;;;5096625;28;20174;-94
2022/07/16 07:32:00;;;;;;;2.13;1.90;;;24.00;86.10;;;;;;5096022;28;20224;-93
2022/07/16 07:34:26;;;;;;;3.03;2.37;;;24.10;86.60;;;;;;5096621;28;20184;-94
2022/07/16 07:36:51;;;;;;;2.70;2.50;;;24.20;84.80;;;;;;5096076;28;20270;-95
2022/07/16 07:39:17;;;;;;;2.20;2.00;;;24.30;84.00;;;;;;5096668;28;20647;-95
2022/07/16 07:41:43;;;;;;;3.63;2.20;;;24.30;83.70;;;;;;5094865;28;20209;-94
2022/07/16 07:44:09;;;;;;;3.00;2.47;;;24.40;82.40;;;;;;5095231;28;20194;-95
2022/07/16 07:46:34;;;;;;;2.23;1.93;;;24.50;81.80;;;;;;5094757;28;20191;-93
2022/07/16 07:49:00;;;;;;;2.80;2.13;;;24.60;81.20;;;;;;5095170;28;20232;-93
2022/07/16 07:51:26;;;;;;;3.83;2.00;;;24.70;80.60;;;;;;5094714;28;20289;-95
2022/07/16 07:53:51;;;;;;;3.57;2.10;;;24.80;79.40;;;;;;5094842;28;20588;-95
2022/07/16 07:56:17;;;;;;;2.40;2.10;;;24.90;79.20;;;;;;5094669;28;20217;-94
2022/07/16 07:58:43;;;;;;;3.97;2.03;;;24.90;78.90;;;;;;5094866;28;20194;-93
2022/07/16 08:01:09;;;;;;;7.07;1.93;;;25.00;78.80;;;;;;5094936;28;20222;-95
2022/07/16 08:03:35;;;;;;;1.80;1.70;;;25.10;78.60;;;;;;5094735;28;20229;-94
2022/07/16 08:06:00;;;;;;;3.83;2.20;;;25.20;78.50;;;;;;5093619;28;20427;-94
2022/07/16 08:08:26;;;;;;;1.60;1.50;;;25.30;78.60;;;;;;5094994;28;20648;-94
2022/07/16 08:10:52;;;;;;;3.80;2.10;;;25.40;78.80;;;;;;5093264;28;20174;-94
2022/07/16 08:13:18;;;;;;;2.43;2.23;;;25.50;76.50;;;;;;5092723;28;20200;-94
2022/07/16 08:15:44;;;;;;;3.30;2.13;;;25.50;76.70;;;;;;5094315;28;20212;-94
2022/07/16 08:18:10;;;;;;;2.10;1.90;;;25.60;77.10;;;;;;5094080;28;20452;-93
2022/07/16 08:20:38;;;;;;;1.60;1.50;;;25.70;77.60;;;;;;5093775;28;20172;-94
2022/07/16 08:23:04;;;;;;;3.10;2.20;;;25.80;76.30;;;;;;5095051;28;20200;-95
2022/07/16 08:25:44;;;;;;;2.47;1.90;;;25.80;76.30;;;;;;5095302;28;20415;-94
2022/07/16 08:28:11;;;;;;;2.60;1.90;;;25.90;75.10;;;;;;5097327;28;20207;-92
2022/07/16 08:30:37;;;;;;;2.73;2.10;;;26.00;74.60;;;;;;5102415;28;20404;-93
2022/07/16 08:33:03;;;;;;;3.63;2.23;;;26.10;74.50;;;;;;5098954;28;20552;-93
2022/07/16 08:35:29;;;;;;;1.87;1.50;;;26.20;74.50;;;;;;5111115;28;20207;-93
2022/07/16 08:37:55;;;;;;;3.30;3.00;;;26.20;76.10;;;;;;5113484;28;20207;-93
2022/07/16 08:40:22;;;;;;;3.93;3.53;;;26.30;73.70;;;;;;5115106;28;20456;-92
2022/07/16 08:42:49;;;;;;;2.47;2.27;;;26.40;74.90;;;;;;5112782;28;20235;-93
2022/07/16 08:45:19;;;;;;;1.70;1.60;;;26.50;74.20;;;;;;5118164;28;20408;-95
2022/07/16 08:47:45;;;;;;;2.87;2.00;;;26.60;75.90;;;;;;5121384;28;20436;-94
2022/07/16 08:50:15;;;;;;;1.90;1.70;;;26.60;75.10;;;;;;5116170;28;20396;-93
2022/07/16 08:52:52;;;;;;;1.90;1.70;;;26.70;74.60;;;;;;5112495;28;20780;-94
2022/07/16 08:55:21;;;;;;;1.80;1.70;;;26.80;76.10;;;;;;5113027;28;20560;-93
2022/07/16 08:57:48;;;;;;;2.00;1.80;;;26.80;75.10;;;;;;5112496;28;20817;-95
2022/07/16 09:00:15;;;;;;;2.20;1.93;;;26.90;75.60;;;;;;5112521;28;20994;-95
2022/07/16 09:02:41;;;;;;;2.30;2.10;;;26.90;74.60;;;;;;5112431;28;20447;-94
2022/07/16 09:05:08;;;;;;;2.03;1.83;;;27.00;74.30;;;;;;5114067;28;20408;-94
2022/07/16 09:07:34;;;;;;;4.50;2.33;;;27.10;74.00;;;;;;5112568;28;20505;-94
2022/07/16 09:10:00;;;;;;;2.40;2.00;;;27.20;71.40;;;;;;5113735;28;20400;-93
2022/07/16 09:12:39;;;;;;;1.90;1.70;;;27.20;70.00;;;;;;5113827;28;20530;-94
2022/07/16 09:15:26;;;;;;;2.00;1.80;;;27.30;70.40;;;;;;5116613;28;20552;-94
2022/07/16 09:18:13;;;;;;;2.33;2.00;;;27.40;72.10;;;;;;5116918;28;20443;-94
2022/07/16 09:20:43;;;;;;;2.20;2.00;;;27.50;71.40;;;;;;5118278;28;20416;-95
2022/07/16 09:23:23;;;;;;;1.60;1.50;;;27.60;70.40;;;;;;5116816;28;20472;-95
2022/07/16 09:26:01;;;;;;;3.83;1.90;;;27.70;69.80;;;;;;5114163;28;20444;-95
2022/07/16 09:28:46;;;;;;;2.80;2.47;;;27.80;70.10;;;;;;5115151;28;20920;-95
2022/07/16 09:31:35;;;;;;;2.13;1.90;;;27.80;69.90;;;;;;5113902;28;20405;-94
2022/07/16 09:34:06;;;;;;;3.00;2.70;;;27.90;69.60;;;;;;5113877;28;20427;-94
2022/07/16 09:36:33;;;;;;;2.20;2.00;;;27.90;68.50;;;;;;5115483;28;20464;-95
2022/07/16 09:38:59;;;;;;;3.33;2.13;;;27.90;68.30;;;;;;5114024;28;20432;-94
2022/07/16 09:41:25;;;;;;;3.10;2.10;;;28.00;69.30;;;;;;5113878;28;20432;-95
2022/07/16 09:43:51;;;;;;;2.23;2.03;;;28.00;69.80;;;;;;5115060;28;20436;-94
2022/07/16 09:46:23;;;;;;;2.30;2.10;;;28.10;69.60;;;;;;5116023;28;20613;-95
2022/07/16 09:48:50;;;;;;;2.90;2.53;;;28.10;69.60;;;;;;5115169;28;20472;-95
2022/07/16 09:51:23;;;;;;;2.33;1.90;;;28.20;68.30;;;;;;5114851;28;20491;-94
2022/07/16 09:53:50;;;;;;;4.10;2.53;;;28.10;67.90;;;;;;5114222;28;20515;-95
2022/07/16 09:56:18;;;;;;;1.90;1.80;;;28.10;68.10;;;;;;5113888;28;20455;-93
2022/07/16 09:58:47;;;;;;;2.80;1.70;;;28.00;67.90;;;;;;5114292;28;20431;-94
2022/07/16 10:01:14;;;;;;;2.80;1.60;;;28.00;68.70;;;;;;5113978;28;21016;-95
2022/07/16 10:03:40;;;;;;;4.13;2.07;;;28.10;69.50;;;;;;5116360;28;20508;-94
2022/07/16 10:06:07;;;;;;;2.20;2.00;;;28.10;68.80;;;;;;5116147;28;20596;-95
2022/07/16 10:08:33;;;;;;;1.90;1.70;;;28.10;70.40;;;;;;5117717;28;20626;-94
2022/07/16 10:10:58;;;;;;;2.50;2.30;;;28.20;70.60;;;;;;5116992;28;20499;-93
2022/07/16 10:13:26;;;;;;;2.53;1.90;;;28.20;69.50;;;;;;5119813;28;20242;-94
2022/07/16 10:15:53;;;;;;;3.07;2.63;;;28.20;69.30;;;;;;5120058;28;20212;-96
2022/07/16 10:18:30;;;;;;;2.03;1.60;;;28.30;69.00;;;;;;5117529;28;20516;-95
2022/07/16 10:21:07;;;;;;;2.00;1.80;;;28.30;68.90;;;;;;5121419;28;20438;-93
2022/07/16 10:23:34;;;;;;;2.33;2.13;;;28.40;68.80;;;;;;5120042;28;20433;-94
2022/07/16 10:26:04;;;;;;;2.60;2.00;;;28.40;68.70;;;;;;5117258;28;20414;-95
2022/07/16 10:28:43;;;;;;;2.37;2.17;;;28.50;68.80;;;;;;5118230;28;20435;-95
2022/07/16 10:31:41;;;;;;;3.50;2.13;;;28.50;68.60;;;;;;5117012;28;20409;-94
2022/07/16 10:34:13;;;;;;;2.27;1.90;;;28.40;69.00;;;;;;5112475;28;20436;-96
2022/07/16 10:36:46;;;;;;;2.73;2.53;;;28.50;69.70;;;;;;5116660;28;20529;-94
2022/07/16 10:39:15;;;;;;;3.63;2.30;;;28.50;69.70;;;;;;5118499;28;20503;-94
2022/07/16 10:41:48;;;;;;;4.80;2.47;;;28.50;70.20;;;;;;5119105;28;20424;-94
2022/07/16 10:44:15;;;;;;;2.27;2.10;;;28.60;70.30;;;;;;5117964;28;20501;-95
2022/07/16 10:46:56;;;;;;;2.20;2.00;;;28.60;69.60;;;;;;5116381;28;20485;-95
2022/07/16 10:49:23;;;;;;;2.57;2.40;;;28.70;69.70;;;;;;5116881;28;20417;-93
2022/07/16 10:51:59;;;;;;;2.47;2.30;;;28.70;69.70;;;;;;5117466;28;20425;-94
2022/07/16 10:54:27;;;;;;;2.33;2.10;;;28.70;70.10;;;;;;5117454;28;20952;-94
2022/07/16 10:56:54;;;;;;;3.00;2.43;;;28.70;69.80;;;;;;5116200;28;20436;-94
2022/07/16 10:59:25;;;;;;;3.90;2.23;;;28.80;70.30;;;;;;5116479;28;20487;-93
2022/07/16 11:01:55;;;;;;;3.57;2.60;;;28.80;70.70;;;;;;5116395;28;20443;-95
2022/07/16 11:04:33;;;;;;;2.90;2.70;;;28.80;70.80;;;;;;5116624;28;20428;-95
2022/07/16 11:07:01;;;;;;;2.50;2.30;;;28.90;70.80;;;;;;5118111;28;20887;-93
2022/07/16 11:09:33;;;;;;;2.70;2.50;;;28.90;71.00;;;;;;5116085;28;20934;-94
2022/07/16 11:12:14;;;;;;;3.27;2.90;;;29.00;70.80;;;;;;5116895;28;20430;-93
2022/07/16 11:14:41;;;;;;;2.23;2.03;;;29.00;70.70;;;;;;5115963;28;20507;-93
2022/07/16 11:17:08;;;;;;;2.10;2.00;;;29.00;70.20;;;;;;5116360;28;20422;-95
2022/07/16 11:19:39;;;;;;;3.00;2.70;;;29.00;71.00;;;;;;5122609;28;20941;-93
2022/07/16 11:22:06;;;;;;;2.50;2.30;;;29.10;71.00;;;;;;5117135;28;20455;-94
2022/07/16 11:24:33;;;;;;;2.73;2.53;;;29.10;70.40;;;;;;5103842;28;20443;-94
2022/07/16 11:27:01;;;;;;;2.90;2.60;;;29.10;70.20;;;;;;5115991;28;20495;-93
2022/07/16 11:29:29;;;;;;;2.90;2.60;;;29.10;71.20;;;;;;5116211;28;20528;-93
2022/07/16 11:31:56;;;;;;;3.03;2.50;;;29.10;71.30;;;;;;5116968;28;20438;-95
2022/07/16 11:34:22;;;;;;;3.40;2.50;;;29.10;70.50;;;;;;5120455;28;20458;-94
2022/07/16 11:36:50;;;;;;;2.97;2.60;;;29.20;71.50;;;;;;5114672;28;21157;-94
2022/07/16 11:39:22;;;;;;;2.10;2.00;;;29.20;72.00;;;;;;5115341;28;20430;-94
2022/07/16 11:41:49;;;;;;;2.90;2.60;;;29.20;71.80;;;;;;5113425;28;20817;-93
2022/07/16 11:44:18;;;;;;;3.20;2.10;;;29.30;71.80;;;;;;5114179;28;20776;-95
2022/07/16 11:46:52;;;;;;;2.80;2.60;;;29.30;71.30;;;;;;5113510;28;20484;-94
2022/07/16 11:49:25;;;;;;;3.27;2.67;;;29.30;71.60;;;;;;5113432;28;20947;-94
2022/07/16 11:51:53;;;;;;;3.30;3.00;;;29.30;71.60;;;;;;5113402;28;20441;-95
2022/07/16 11:54:19;;;;;;;2.97;2.77;;;29.30;71.60;;;;;;5113378;28;20426;-94
2022/07/16 11:56:45;;;;;;;2.97;2.77;;;29.30;71.00;;;;;;5114658;28;20441;-94
2022/07/16 11:59:27;;;;;;;2.80;2.60;;;29.30;71.80;;;;;;5115459;28;20979;-95
2022/07/16 12:02:06;;;;;;;3.03;2.73;;;29.30;71.70;;;;;;5114917;28;20234;-95
2022/07/16 12:04:44;;;;;;;3.17;2.87;;;29.40;71.70;;;;;;5114175;28;20480;-95
2022/07/16 12:07:13;;;;;;;3.70;2.90;;;29.40;71.60;;;;;;5114461;28;20466;-94
2022/07/16 12:09:42;;;;;;;3.17;2.87;;;29.40;72.50;;;;;;5116214;28;20912;-94
2022/07/16 12:12:17;;;;;;;2.77;2.57;;;29.40;72.40;;;;;;5116673;28;20510;-94
2022/07/16 12:14:45;;;;;;;2.93;2.63;;;29.40;72.00;;;;;;5114799;28;20474;-93
2022/07/16 12:17:23;;;;;;;2.97;2.70;;;29.40;72.10;;;;;;5114651;28;20561;-93
2022/07/16 12:20:03;;;;;;;2.77;2.27;;;29.50;72.50;;;;;;5114771;28;20415;-94
2022/07/16 12:22:47;;;;;;;4.07;3.03;;;29.50;72.00;;;;;;5118376;28;20436;-92
2022/07/16 12:25:20;;;;;;;3.23;2.93;;;29.50;72.00;;;;;;5113705;28;20434;-94
2022/07/16 12:27:52;;;;;;;2.73;2.53;;;29.40;72.20;;;;;;5118350;28;20455;-93
2022/07/16 12:30:19;;;;;;;4.13;2.90;;;29.40;71.90;;;;;;5114812;28;20421;-95
2022/07/16 12:32:49;;;;;;;3.07;2.77;;;29.40;72.20;;;;;;5114325;28;20482;-94
2022/07/16 12:35:38;;;;;;;3.27;2.63;;;29.30;72.60;;;;;;5115655;28;20516;-95
2022/07/16 12:38:04;;;;;;;3.53;3.13;;;29.30;72.50;;;;;;5114538;28;20442;-95
2022/07/16 12:40:31;;;;;;;3.07;2.70;;;29.30;72.70;;;;;;5114192;28;20421;-94
2022/07/16 12:42:58;;;;;;;4.70;2.53;;;29.30;73.10;;;;;;5114155;28;20479;-94
2022/07/16 12:45:24;;;;;;;2.90;2.70;;;29.30;73.10;;;;;;5114633;28;20441;-95
2022/07/16 12:47:50;;;;;;;2.80;2.40;;;29.30;73.10;;;;;;5116907;28;20799;-93
2022/07/16 12:50:16;;;;;;;3.20;2.93;;;29.30;73.10;;;;;;5114416;28;20416;-94
2022/07/16 12:52:42;;;;;;;3.80;2.83;;;29.20;73.10;;;;;;5114003;28;20219;-92
2022/07/16 13:00:36;;;;;;;2.90;2.50;;;29.20;73.00;;;;;;5115507;28;20461;-94